Huemul — 3EUB7 — position and weather

sailwx.info

Track history (hours):
 
Tides and Currents Weather Stations Pressure Air Temp Water Temp Dewpoint Dewpoint Depression Visibility Wind Speed Wind Dir Waves Ship Positions

Huemul

Last reported at 2018-Feb-07 09:30 UTC. Time now 2018-Feb-18 19:32 UTC.
Position N 29°37' W 095°01'.
Warning: this ship's position is 11 days out of date.

Length 161 m; draft 8.8 m.

Type: Ship (hazmat cat A). MMSI: 357865000.

Date/timePositionNaut miles runAvg speedWind from/ knotsBaromVisibWave heightAir tempDewpointWater temp
2018-Feb-07 09:30N 29°37' W 095°01'0 0.0
2018-Feb-07 09:00N 29°37' W 095°01'0 0.0
2018-Feb-07 08:30N 29°37' W 095°01'0 0.0
2018-Feb-07 08:00N 29°37' W 095°01'0 0.0
2018-Feb-07 07:30N 29°37' W 095°01'0 0.0
2018-Feb-07 06:30N 29°37' W 095°01'0 0.0
2018-Feb-07 06:00N 29°37' W 095°01'0 0.0
2018-Feb-07 05:30N 29°37' W 095°01'0 0.0
2018-Feb-07 05:00N 29°37' W 095°01'0 0.0
2018-Feb-07 04:30N 29°37' W 095°01'0 0.0
2018-Feb-07 04:00N 29°37' W 095°01'0 0.0
2018-Feb-07 03:30N 29°37' W 095°01'0 0.0
2018-Feb-07 03:00N 29°37' W 095°01'0 0.0
2018-Feb-07 02:30N 29°37' W 095°01'0 0.0
2018-Feb-07 01:26N 29°37' W 095°01'0 0.0
2018-Feb-07 01:00N 29°37' W 095°01'0 0.0
2018-Feb-07 00:30N 29°37' W 095°01'0 0.0
2018-Feb-07 00:00N 29°37' W 095°01'0 0.0
2018-Feb-06 23:30N 29°37' W 095°01'0 0.0
2018-Feb-06 23:00N 29°37' W 095°01'0 0.0
2018-Feb-06 22:30N 29°37' W 095°01'0 0.0
2018-Feb-06 22:00N 29°37' W 095°01'0 0.0
2018-Feb-06 21:30N 29°37' W 095°01'0 0.0
2018-Feb-06 21:00N 29°37' W 095°01'0 0.0
2018-Feb-06 20:30N 29°37' W 095°01'0 0.0
2018-Feb-06 20:00N 29°37' W 095°01'0 0.0
2018-Feb-06 19:30N 29°37' W 095°01'0 0.0
2018-Feb-06 18:44N 29°37' W 095°01'0 0.0
2018-Feb-06 18:28N 29°37' W 095°01'0 0.0
2018-Feb-06 18:00N 29°37' W 095°01'0 0.0
2018-Feb-06 17:30N 29°37' W 095°01'0 0.0
2018-Feb-06 17:00N 29°37' W 095°01'0 0.0
2018-Feb-06 16:30N 29°37' W 095°01'0 0.0
2018-Feb-06 16:00N 29°37' W 095°01'0 0.0
2018-Feb-06 15:30N 29°37' W 095°01'0 0.0
2018-Feb-06 15:00N 29°37' W 095°01'0 0.0
2018-Feb-06 14:30N 29°37' W 095°01'0 0.0
2018-Feb-06 14:00N 29°37' W 095°01'0 0.0
2018-Feb-06 13:30N 29°37' W 095°01'0 0.0
2018-Feb-06 13:00N 29°37' W 095°01'0 0.0
2018-Feb-06 12:30N 29°37' W 095°01'0 0.0
2018-Feb-06 11:25N 29°37' W 095°01'0 0.0
2018-Feb-06 10:30N 29°37' W 095°01'0 0.0
2018-Feb-06 10:00N 29°37' W 095°01'0 0.0
2018-Feb-06 09:30N 29°37' W 095°01'0 0.0
2018-Feb-06 09:00N 29°37' W 095°01'0 0.0
2018-Feb-06 08:30N 29°37' W 095°01'0 0.0
2018-Feb-06 08:00N 29°37' W 095°01'0 0.0
2018-Feb-06 07:30N 29°37' W 095°01'0 0.0
2018-Feb-06 06:30N 29°37' W 095°01'0 0.0
2018-Feb-06 05:30N 29°37' W 095°01'0 0.0
2018-Feb-06 04:25N 29°37' W 095°01'0 0.0
2018-Feb-06 04:00N 29°37' W 095°01'0 0.0
2018-Feb-06 02:25N 29°37' W 095°01'0 0.0
2018-Feb-06 02:00N 29°37' W 095°01'0 0.0
2018-Feb-05 22:30N 29°37' W 095°01'7 6.1
2018-Feb-05 21:24N 29°33' W 094°55'511.6
2018-Feb-05 21:00N 29°29' W 094°52'5 0.2
2018-Feb-04 19:47N 29°25' W 094°50'412.7
2018-Feb-04 19:28N 29°29' W 094°51'612.5
2018-Feb-04 19:00N 29°34' W 094°55'611.3
2018-Feb-04 18:30N 29°39' W 094°58'510.3
2018-Feb-04 17:59N 29°43' W 095°01'4 8.4
2018-Feb-04 17:30N 29°46' W 095°05'1 0.0
2018-Feb-03 15:14N 29°45' W 095°04'3 8.0
2018-Feb-03 14:50N 29°43' W 095°01'3 9.7
2018-Feb-03 14:29N 29°41' W 094°59'611.9
2018-Feb-03 13:59N 29°35' W 094°56'612.7
2018-Feb-03 13:30N 29°30' W 094°52'8 0.2
2018-Feb-01 10:01N 29°23' W 094°49'011.1
2018-Feb-01 10:00N 29°23' W 094°49'611.0
2018-Feb-01 09:30N 29°28' W 094°51'510.9
2018-Feb-01 09:00N 29°33' W 094°54'510.7
2018-Feb-01 08:30N 29°37' W 094°58'8 7.9
2018-Feb-01 07:30N 29°44' W 095°03'3 5.6
2018-Feb-01 07:00N 29°45' W 095°06'0 0.6
2018-Feb-01 06:24N 29°45' W 095°06'0 0.0
2018-Feb-01 05:57N 29°45' W 095°06'0 0.0
2018-Feb-01 05:30N 29°45' W 095°06'0 0.0
2018-Feb-01 04:58N 29°45' W 095°06'0 0.0
2018-Feb-01 04:27N 29°45' W 095°06'0 0.0
2018-Feb-01 03:59N 29°45' W 095°06'0 0.0
2018-Feb-01 03:00N 29°45' W 095°06'0 0.0
2018-Feb-01 02:30N 29°45' W 095°06'0 0.0
2018-Feb-01 01:58N 29°45' W 095°06'0 0.0
2018-Feb-01 01:30N 29°45' W 095°06'0 0.0
2018-Feb-01 01:00N 29°45' W 095°06'0 0.0
2018-Feb-01 00:30N 29°45' W 095°06'0 0.0
2018-Jan-31 23:58N 29°45' W 095°06'0 0.0
2018-Jan-31 22:57N 29°45' W 095°06'0 0.0
2018-Jan-31 22:30N 29°45' W 095°06'0 0.0
2018-Jan-31 20:57N 29°45' W 095°06'0 0.0
2018-Jan-31 20:25N 29°45' W 095°06'0 0.0
2018-Jan-31 19:56N 29°45' W 095°06'0 0.0
2018-Jan-31 19:25N 29°45' W 095°06'0 0.0
2018-Jan-31 18:54N 29°45' W 095°06'0 0.0
2018-Jan-31 18:29N 29°45' W 095°06'0 0.0
2018-Jan-31 17:58N 29°45' W 095°06'0 0.0
2018-Jan-31 17:27N 29°45' W 095°06'0 0.0
2018-Jan-31 16:56N 29°45' W 095°06'0 0.0
2018-Jan-31 16:15N 29°45' W 095°06'0 0.0
2018-Jan-31 15:58N 29°45' W 095°06'0 0.0
2018-Jan-31 15:19N 29°45' W 095°06'0 0.0
2018-Jan-31 15:00N 29°45' W 095°06'0 0.0
2018-Jan-31 14:29N 29°45' W 095°06'0 0.0
2018-Jan-31 13:00N 29°45' W 095°06'0 0.0
2018-Jan-31 12:29N 29°45' W 095°06'0 0.0
2018-Jan-31 11:58N 29°45' W 095°06'0 0.0
2018-Jan-31 11:30N 29°45' W 095°06'0 0.0
2018-Jan-31 11:00N 29°45' W 095°06'0 0.0
2018-Jan-31 10:30N 29°45' W 095°06'0 0.0
2018-Jan-31 10:00N 29°45' W 095°06'0 0.0
2018-Jan-31 09:31N 29°45' W 095°06'0 0.0
2018-Jan-31 09:00N 29°45' W 095°06'0 0.0
2018-Jan-31 08:30N 29°45' W 095°06'0 0.0
2018-Jan-31 07:58N 29°45' W 095°06'0 0.0
2018-Jan-31 07:30N 29°45' W 095°06'0 0.0
2018-Jan-31 07:01N 29°45' W 095°06'0 0.0
2018-Jan-31 06:31N 29°45' W 095°06'0 0.0
2018-Jan-31 05:58N 29°45' W 095°06'0 0.0
2018-Jan-31 05:30N 29°45' W 095°06'0 0.0
2018-Jan-31 04:53N 29°45' W 095°06'0 0.0
2018-Jan-31 04:30N 29°45' W 095°06'0 0.0
2018-Jan-31 03:59N 29°45' W 095°06'0 0.0
2018-Jan-31 03:26N 29°45' W 095°06'0 0.0
2018-Jan-31 02:56N 29°45' W 095°06'0 0.0
2018-Jan-31 02:30N 29°45' W 095°06'0 0.0
2018-Jan-31 01:56N 29°45' W 095°06'0 0.0
2018-Jan-31 01:24N 29°45' W 095°06'1 0.8
2018-Jan-31 00:36N 29°45' W 095°06'4 6.4
2018-Jan-31 00:00N 29°44' W 095°02'4 9.1
2018-Jan-30 23:30N 29°40' W 094°59'611.5
2018-Jan-30 23:00N 29°35' W 094°56'712.7
2018-Jan-30 22:28N 29°29' W 094°52'25 0.8
2018-Jan-29 16:31N 29°15' W 094°28'0 0.0
2018-Jan-29 16:28N 29°15' W 094°28'0 0.0
2018-Jan-29 15:49N 29°15' W 094°28'0 0.0
2018-Jan-29 15:16N 29°15' W 094°28'0 0.0
2018-Jan-29 14:58N 29°15' W 094°28'0 0.0
2018-Jan-29 14:28N 29°15' W 094°28'0 0.0
2018-Jan-29 13:43N 29°15' W 094°28'0 0.0
2018-Jan-29 13:07N 29°15' W 094°28'0 0.0
2018-Jan-29 12:58N 29°15' W 094°28'0 0.0
2018-Jan-29 12:22N 29°15' W 094°28'0 0.0
2018-Jan-29 11:52N 29°15' W 094°28'  
Track history (hours):
 
Tides and Currents Weather Stations Pressure Air Temp Water Temp Dewpoint Dewpoint Depression Visibility Wind Speed Wind Dir Waves Ship Positions

Huemul

Last reported at 2018-Feb-07 09:30 UTC. Time now 2018-Feb-18 19:32 UTC.
Position N 29°37' W 095°01'.
Warning: this ship's position is 11 days out of date.

Length 161 m; draft 8.8 m.

Type: Ship (hazmat cat A). MMSI: 357865000.

Date/timePositionNaut miles runAvg speedWind from/ knotsBaromVisibWave heightAir tempDewpointWater temp
2018-Feb-07 09:30N 29°37' W 095°01'0 0.0
2018-Feb-07 09:00N 29°37' W 095°01'0 0.0
2018-Feb-07 08:30N 29°37' W 095°01'0 0.0
2018-Feb-07 08:00N 29°37' W 095°01'0 0.0
2018-Feb-07 07:30N 29°37' W 095°01'0 0.0
2018-Feb-07 06:30N 29°37' W 095°01'0 0.0
2018-Feb-07 06:00N 29°37' W 095°01'0 0.0
2018-Feb-07 05:30N 29°37' W 095°01'0 0.0
2018-Feb-07 05:00N 29°37' W 095°01'0 0.0
2018-Feb-07 04:30N 29°37' W 095°01'0 0.0
2018-Feb-07 04:00N 29°37' W 095°01'0 0.0
2018-Feb-07 03:30N 29°37' W 095°01'0 0.0
2018-Feb-07 03:00N 29°37' W 095°01'0 0.0
2018-Feb-07 02:30N 29°37' W 095°01'0 0.0
2018-Feb-07 01:26N 29°37' W 095°01'0 0.0
2018-Feb-07 01:00N 29°37' W 095°01'0 0.0
2018-Feb-07 00:30N 29°37' W 095°01'0 0.0
2018-Feb-07 00:00N 29°37' W 095°01'0 0.0
2018-Feb-06 23:30N 29°37' W 095°01'0 0.0
2018-Feb-06 23:00N 29°37' W 095°01'0 0.0
2018-Feb-06 22:30N 29°37' W 095°01'0 0.0
2018-Feb-06 22:00N 29°37' W 095°01'0 0.0
2018-Feb-06 21:30N 29°37' W 095°01'0 0.0
2018-Feb-06 21:00N 29°37' W 095°01'0 0.0
2018-Feb-06 20:30N 29°37' W 095°01'0 0.0
2018-Feb-06 20:00N 29°37' W 095°01'0 0.0
2018-Feb-06 19:30N 29°37' W 095°01'0 0.0
2018-Feb-06 18:44N 29°37' W 095°01'0 0.0
2018-Feb-06 18:28N 29°37' W 095°01'0 0.0
2018-Feb-06 18:00N 29°37' W 095°01'0 0.0
2018-Feb-06 17:30N 29°37' W 095°01'0 0.0
2018-Feb-06 17:00N 29°37' W 095°01'0 0.0
2018-Feb-06 16:30N 29°37' W 095°01'0 0.0
2018-Feb-06 16:00N 29°37' W 095°01'0 0.0
2018-Feb-06 15:30N 29°37' W 095°01'0 0.0
2018-Feb-06 15:00N 29°37' W 095°01'0 0.0
2018-Feb-06 14:30N 29°37' W 095°01'0 0.0
2018-Feb-06 14:00N 29°37' W 095°01'0 0.0
2018-Feb-06 13:30N 29°37' W 095°01'0 0.0
2018-Feb-06 13:00N 29°37' W 095°01'0 0.0
2018-Feb-06 12:30N 29°37' W 095°01'0 0.0
2018-Feb-06 11:25N 29°37' W 095°01'0 0.0
2018-Feb-06 10:30N 29°37' W 095°01'0 0.0
2018-Feb-06 10:00N 29°37' W 095°01'0 0.0
2018-Feb-06 09:30N 29°37' W 095°01'0 0.0
2018-Feb-06 09:00N 29°37' W 095°01'0 0.0
2018-Feb-06 08:30N 29°37' W 095°01'0 0.0
2018-Feb-06 08:00N 29°37' W 095°01'0 0.0
2018-Feb-06 07:30N 29°37' W 095°01'0 0.0
2018-Feb-06 06:30N 29°37' W 095°01'0 0.0
2018-Feb-06 05:30N 29°37' W 095°01'0 0.0
2018-Feb-06 04:25N 29°37' W 095°01'0 0.0
2018-Feb-06 04:00N 29°37' W 095°01'0 0.0
2018-Feb-06 02:25N 29°37' W 095°01'0 0.0
2018-Feb-06 02:00N 29°37' W 095°01'0 0.0
2018-Feb-05 22:30N 29°37' W 095°01'7 6.1
2018-Feb-05 21:24N 29°33' W 094°55'511.6
2018-Feb-05 21:00N 29°29' W 094°52'5 0.2
2018-Feb-04 19:47N 29°25' W 094°50'412.7
2018-Feb-04 19:28N 29°29' W 094°51'612.5
2018-Feb-04 19:00N 29°34' W 094°55'611.3
2018-Feb-04 18:30N 29°39' W 094°58'510.3
2018-Feb-04 17:59N 29°43' W 095°01'4 8.4
2018-Feb-04 17:30N 29°46' W 095°05'1 0.0
2018-Feb-03 15:14N 29°45' W 095°04'3 8.0
2018-Feb-03 14:50N 29°43' W 095°01'3 9.7
2018-Feb-03 14:29N 29°41' W 094°59'611.9
2018-Feb-03 13:59N 29°35' W 094°56'612.7
2018-Feb-03 13:30N 29°30' W 094°52'8 0.2
2018-Feb-01 10:01N 29°23' W 094°49'011.1
2018-Feb-01 10:00N 29°23' W 094°49'611.0
2018-Feb-01 09:30N 29°28' W 094°51'510.9
2018-Feb-01 09:00N 29°33' W 094°54'510.7
2018-Feb-01 08:30N 29°37' W 094°58'8 7.9
2018-Feb-01 07:30N 29°44' W 095°03'3 5.6
2018-Feb-01 07:00N 29°45' W 095°06'0 0.6
2018-Feb-01 06:24N 29°45' W 095°06'0 0.0
2018-Feb-01 05:57N 29°45' W 095°06'0 0.0
2018-Feb-01 05:30N 29°45' W 095°06'0 0.0
2018-Feb-01 04:58N 29°45' W 095°06'0 0.0
2018-Feb-01 04:27N 29°45' W 095°06'0 0.0
2018-Feb-01 03:59N 29°45' W 095°06'0 0.0
2018-Feb-01 03:00N 29°45' W 095°06'0 0.0
2018-Feb-01 02:30N 29°45' W 095°06'0 0.0
2018-Feb-01 01:58N 29°45' W 095°06'0 0.0
2018-Feb-01 01:30N 29°45' W 095°06'0 0.0
2018-Feb-01 01:00N 29°45' W 095°06'0 0.0
2018-Feb-01 00:30N 29°45' W 095°06'0 0.0
2018-Jan-31 23:58N 29°45' W 095°06'0 0.0
2018-Jan-31 22:57N 29°45' W 095°06'0 0.0
2018-Jan-31 22:30N 29°45' W 095°06'0 0.0
2018-Jan-31 20:57N 29°45' W 095°06'0 0.0
2018-Jan-31 20:25N 29°45' W 095°06'0 0.0
2018-Jan-31 19:56N 29°45' W 095°06'0 0.0
2018-Jan-31 19:25N 29°45' W 095°06'0 0.0
2018-Jan-31 18:54N 29°45' W 095°06'0 0.0
2018-Jan-31 18:29N 29°45' W 095°06'0 0.0
2018-Jan-31 17:58N 29°45' W 095°06'0 0.0
2018-Jan-31 17:27N 29°45' W 095°06'0 0.0
2018-Jan-31 16:56N 29°45' W 095°06'0 0.0
2018-Jan-31 16:15N 29°45' W 095°06'0 0.0
2018-Jan-31 15:58N 29°45' W 095°06'0 0.0
2018-Jan-31 15:19N 29°45' W 095°06'0 0.0
2018-Jan-31 15:00N 29°45' W 095°06'0 0.0
2018-Jan-31 14:29N 29°45' W 095°06'0 0.0
2018-Jan-31 13:00N 29°45' W 095°06'0 0.0
2018-Jan-31 12:29N 29°45' W 095°06'0 0.0
2018-Jan-31 11:58N 29°45' W 095°06'0 0.0
2018-Jan-31 11:30N 29°45' W 095°06'0 0.0
2018-Jan-31 11:00N 29°45' W 095°06'0 0.0
2018-Jan-31 10:30N 29°45' W 095°06'0 0.0
2018-Jan-31 10:00N 29°45' W 095°06'0 0.0
2018-Jan-31 09:31N 29°45' W 095°06'0 0.0
2018-Jan-31 09:00N 29°45' W 095°06'0 0.0
2018-Jan-31 08:30N 29°45' W 095°06'0 0.0
2018-Jan-31 07:58N 29°45' W 095°06'0 0.0
2018-Jan-31 07:30N 29°45' W 095°06'0 0.0
2018-Jan-31 07:01N 29°45' W 095°06'0 0.0
2018-Jan-31 06:31N 29°45' W 095°06'0 0.0
2018-Jan-31 05:58N 29°45' W 095°06'0 0.0
2018-Jan-31 05:30N 29°45' W 095°06'0 0.0
2018-Jan-31 04:53N 29°45' W 095°06'0 0.0
2018-Jan-31 04:30N 29°45' W 095°06'0 0.0
2018-Jan-31 03:59N 29°45' W 095°06'0 0.0
2018-Jan-31 03:26N 29°45' W 095°06'0 0.0
2018-Jan-31 02:56N 29°45' W 095°06'0 0.0
2018-Jan-31 02:30N 29°45' W 095°06'0 0.0
2018-Jan-31 01:56N 29°45' W 095°06'0 0.0
2018-Jan-31 01:24N 29°45' W 095°06'1 0.8
2018-Jan-31 00:36N 29°45' W 095°06'4 6.4
2018-Jan-31 00:00N 29°44' W 095°02'4 9.1
2018-Jan-30 23:30N 29°40' W 094°59'611.5
2018-Jan-30 23:00N 29°35' W 094°56'712.7
2018-Jan-30 22:28N 29°29' W 094°52'25 0.8
2018-Jan-29 16:31N 29°15' W 094°28'0 0.0
2018-Jan-29 16:28N 29°15' W 094°28'0 0.0
2018-Jan-29 15:49N 29°15' W 094°28'0 0.0
2018-Jan-29 15:16N 29°15' W 094°28'0 0.0
2018-Jan-29 14:58N 29°15' W 094°28'0 0.0
2018-Jan-29 14:28N 29°15' W 094°28'0 0.0
2018-Jan-29 13:43N 29°15' W 094°28'0 0.0
2018-Jan-29 13:07N 29°15' W 094°28'0 0.0
2018-Jan-29 12:58N 29°15' W 094°28'0 0.0
2018-Jan-29 12:22N 29°15' W 094°28'0 0.0
2018-Jan-29 11:52N 29°15' W 094°28'  

Dump ship's entire track history